sensor_id;sensor_type;location;lat;lon;timestamp;P1;durP1;ratioP1;P2;durP2;ratioP2
10653;SDS011;5375;51.250;6.776;2022-12-07T00:00:27;2.10;;;1.90;;
10653;SDS011;5375;51.250;6.776;2022-12-07T00:02:53;3.20;;;2.20;;
10653;SDS011;5375;51.250;6.776;2022-12-07T00:05:18;3.43;;;2.40;;
10653;SDS011;5375;51.250;6.776;2022-12-07T00:07:44;3.03;;;2.20;;
10653;SDS011;5375;51.250;6.776;2022-12-07T00:10:09;2.17;;;1.80;;
10653;SDS011;5375;51.250;6.776;2022-12-07T00:12:35;2.40;;;1.70;;
10653;SDS011;5375;51.250;6.776;2022-12-07T00:15:01;2.33;;;1.80;;
10653;SDS011;5375;51.250;6.776;2022-12-07T00:17:27;3.03;;;1.80;;
10653;SDS011;5375;51.250;6.776;2022-12-07T00:19:52;2.90;;;2.00;;
10653;SDS011;5375;51.250;6.776;2022-12-07T00:22:18;2.53;;;2.00;;
10653;SDS011;5375;51.250;6.776;2022-12-07T00:24:43;1.87;;;1.73;;
10653;SDS011;5375;51.250;6.776;2022-12-07T00:27:09;2.33;;;1.90;;
10653;SDS011;5375;51.250;6.776;2022-12-07T00:29:35;2.43;;;1.90;;
10653;SDS011;5375;51.250;6.776;2022-12-07T00:32:01;2.20;;;1.80;;
10653;SDS011;5375;51.250;6.776;2022-12-07T00:34:28;3.47;;;1.80;;
10653;SDS011;5375;51.250;6.776;2022-12-07T00:36:53;3.27;;;1.87;;
10653;SDS011;5375;51.250;6.776;2022-12-07T00:39:19;1.90;;;1.70;;
10653;SDS011;5375;51.250;6.776;2022-12-07T00:41:44;3.03;;;2.13;;
10653;SDS011;5375;51.250;6.776;2022-12-07T00:44:10;2.37;;;1.80;;
10653;SDS011;5375;51.250;6.776;2022-12-07T00:46:36;2.77;;;1.60;;
10653;SDS011;5375;51.250;6.776;2022-12-07T00:49:02;3.73;;;1.70;;
10653;SDS011;5375;51.250;6.776;2022-12-07T00:51:28;1.70;;;1.60;;
10653;SDS011;5375;51.250;6.776;2022-12-07T00:53:54;3.30;;;1.77;;
10653;SDS011;5375;51.250;6.776;2022-12-07T00:56:23;2.83;;;1.80;;
10653;SDS011;5375;51.250;6.776;2022-12-07T00:58:57;1.87;;;1.70;;
10653;SDS011;5375;51.250;6.776;2022-12-07T01:01:25;1.90;;;1.70;;
10653;SDS011;5375;51.250;6.776;2022-12-07T01:03:52;2.53;;;1.70;;
10653;SDS011;5375;51.250;6.776;2022-12-07T01:06:19;2.27;;;1.60;;
10653;SDS011;5375;51.250;6.776;2022-12-07T01:08:46;2.70;;;1.80;;
10653;SDS011;5375;51.250;6.776;2022-12-07T01:11:13;2.43;;;2.00;;
10653;SDS011;5375;51.250;6.776;2022-12-07T01:13:40;1.87;;;1.60;;
10653;SDS011;5375;51.250;6.776;2022-12-07T01:16:06;2.03;;;1.60;;
10653;SDS011;5375;51.250;6.776;2022-12-07T01:18:33;1.90;;;1.70;;
10653;SDS011;5375;51.250;6.776;2022-12-07T01:21:04;2.50;;;1.80;;
10653;SDS011;5375;51.250;6.776;2022-12-07T01:23:34;2.00;;;1.77;;
10653;SDS011;5375;51.250;6.776;2022-12-07T01:26:04;3.23;;;1.90;;
10653;SDS011;5375;51.250;6.776;2022-12-07T01:28:33;1.97;;;1.53;;
10653;SDS011;5375;51.250;6.776;2022-12-07T01:31:00;1.77;;;1.60;;
10653;SDS011;5375;51.250;6.776;2022-12-07T01:33:28;1.93;;;1.60;;
10653;SDS011;5375;51.250;6.776;2022-12-07T01:36:00;3.30;;;1.53;;
10653;SDS011;5375;51.250;6.776;2022-12-07T01:38:29;2.37;;;1.70;;
10653;SDS011;5375;51.250;6.776;2022-12-07T01:40:56;2.00;;;1.80;;
10653;SDS011;5375;51.250;6.776;2022-12-07T01:43:22;2.80;;;2.00;;
10653;SDS011;5375;51.250;6.776;2022-12-07T01:45:50;2.80;;;1.80;;
10653;SDS011;5375;51.250;6.776;2022-12-07T01:48:16;2.97;;;1.70;;
10653;SDS011;5375;51.250;6.776;2022-12-07T01:50:47;2.07;;;1.50;;
10653;SDS011;5375;51.250;6.776;2022-12-07T01:53:15;2.13;;;1.53;;
10653;SDS011;5375;51.250;6.776;2022-12-07T01:55:43;2.37;;;1.70;;
10653;SDS011;5375;51.250;6.776;2022-12-07T01:58:11;2.43;;;1.73;;
10653;SDS011;5375;51.250;6.776;2022-12-07T02:00:38;1.80;;;1.57;;
10653;SDS011;5375;51.250;6.776;2022-12-07T02:05:37;1.80;;;1.60;;
10653;SDS011;5375;51.250;6.776;2022-12-07T02:08:05;2.00;;;1.67;;
10653;SDS011;5375;51.250;6.776;2022-12-07T02:10:31;1.80;;;1.40;;
10653;SDS011;5375;51.250;6.776;2022-12-07T02:12:58;2.10;;;1.50;;
10653;SDS011;5375;51.250;6.776;2022-12-07T02:15:41;1.80;;;1.60;;
10653;SDS011;5375;51.250;6.776;2022-12-07T02:29:18;1.63;;;1.40;;
10653;SDS011;5375;51.250;6.776;2022-12-07T02:37:29;2.47;;;1.67;;
10653;SDS011;5375;51.250;6.776;2022-12-07T02:40:14;2.07;;;1.40;;
10653;SDS011;5375;51.250;6.776;2022-12-07T02:42:48;2.23;;;1.90;;
10653;SDS011;5375;51.250;6.776;2022-12-07T02:45:20;2.80;;;1.63;;
10653;SDS011;5375;51.250;6.776;2022-12-07T02:47:50;2.10;;;1.73;;
10653;SDS011;5375;51.250;6.776;2022-12-07T02:50:21;8.53;;;2.00;;
10653;SDS011;5375;51.250;6.776;2022-12-07T02:52:47;7.57;;;1.60;;
10653;SDS011;5375;51.250;6.776;2022-12-07T02:55:13;12.27;;;1.80;;
10653;SDS011;5375;51.250;6.776;2022-12-07T02:58:06;1.83;;;1.43;;
10653;SDS011;5375;51.250;6.776;2022-12-07T03:00:52;2.57;;;1.40;;
10653;SDS011;5375;51.250;6.776;2022-12-07T03:03:39;2.60;;;1.70;;
10653;SDS011;5375;51.250;6.776;2022-12-07T03:06:16;2.67;;;1.50;;
10653;SDS011;5375;51.250;6.776;2022-12-07T03:08:54;2.17;;;1.60;;
10653;SDS011;5375;51.250;6.776;2022-12-07T03:11:45;3.33;;;1.73;;
10653;SDS011;5375;51.250;6.776;2022-12-07T03:14:25;3.17;;;1.70;;
10653;SDS011;5375;51.250;6.776;2022-12-07T03:19:31;2.43;;;1.63;;
10653;SDS011;5375;51.250;6.776;2022-12-07T03:22:02;4.00;;;1.50;;
10653;SDS011;5375;51.250;6.776;2022-12-07T03:24:37;2.33;;;1.70;;
10653;SDS011;5375;51.250;6.776;2022-12-07T03:27:13;2.37;;;1.63;;
10653;SDS011;5375;51.250;6.776;2022-12-07T03:29:45;2.33;;;1.47;;
10653;SDS011;5375;51.250;6.776;2022-12-07T03:32:21;1.53;;;1.40;;
10653;SDS011;5375;51.250;6.776;2022-12-07T03:35:05;2.40;;;1.50;;
10653;SDS011;5375;51.250;6.776;2022-12-07T03:37:55;2.67;;;1.57;;
10653;SDS011;5375;51.250;6.776;2022-12-07T03:40:32;3.17;;;1.73;;
10653;SDS011;5375;51.250;6.776;2022-12-07T03:43:09;2.67;;;1.60;;
10653;SDS011;5375;51.250;6.776;2022-12-07T03:45:39;2.87;;;1.47;;
10653;SDS011;5375;51.250;6.776;2022-12-07T03:48:19;2.10;;;1.67;;
10653;SDS011;5375;51.250;6.776;2022-12-07T03:50:49;1.50;;;1.40;;
10653;SDS011;5375;51.250;6.776;2022-12-07T03:53:25;2.13;;;1.60;;
10653;SDS011;5375;51.250;6.776;2022-12-07T03:56:05;3.83;;;1.70;;
10653;SDS011;5375;51.250;6.776;2022-12-07T03:58:33;2.77;;;1.77;;
10653;SDS011;5375;51.250;6.776;2022-12-07T04:00:59;3.60;;;1.90;;
10653;SDS011;5375;51.250;6.776;2022-12-07T04:03:25;3.37;;;1.60;;
10653;SDS011;5375;51.250;6.776;2022-12-07T04:05:50;3.10;;;2.00;;
10653;SDS011;5375;51.250;6.776;2022-12-07T04:08:16;3.30;;;1.57;;
10653;SDS011;5375;51.250;6.776;2022-12-07T04:10:42;4.60;;;1.63;;
10653;SDS011;5375;51.250;6.776;2022-12-07T04:13:07;4.50;;;1.50;;
10653;SDS011;5375;51.250;6.776;2022-12-07T04:15:33;3.30;;;1.70;;
10653;SDS011;5375;51.250;6.776;2022-12-07T04:17:58;2.60;;;1.60;;
10653;SDS011;5375;51.250;6.776;2022-12-07T04:20:24;3.73;;;1.47;;
10653;SDS011;5375;51.250;6.776;2022-12-07T04:22:50;2.73;;;1.37;;
10653;SDS011;5375;51.250;6.776;2022-12-07T04:25:15;4.80;;;1.43;;
10653;SDS011;5375;51.250;6.776;2022-12-07T04:27:41;2.17;;;1.50;;
10653;SDS011;5375;51.250;6.776;2022-12-07T04:30:07;3.10;;;1.40;;
10653;SDS011;5375;51.250;6.776;2022-12-07T04:32:33;3.13;;;1.73;;
10653;SDS011;5375;51.250;6.776;2022-12-07T04:34:59;3.27;;;1.60;;
10653;SDS011;5375;51.250;6.776;2022-12-07T04:37:24;2.77;;;1.47;;
10653;SDS011;5375;51.250;6.776;2022-12-07T04:39:50;3.20;;;1.60;;
10653;SDS011;5375;51.250;6.776;2022-12-07T04:42:15;3.60;;;1.60;;
10653;SDS011;5375;51.250;6.776;2022-12-07T04:44:41;2.80;;;1.80;;
10653;SDS011;5375;51.250;6.776;2022-12-07T04:47:07;2.80;;;1.90;;
10653;SDS011;5375;51.250;6.776;2022-12-07T04:49:32;2.30;;;1.50;;
10653;SDS011;5375;51.250;6.776;2022-12-07T04:51:58;2.17;;;1.60;;
10653;SDS011;5375;51.250;6.776;2022-12-07T04:54:24;2.30;;;1.40;;
10653;SDS011;5375;51.250;6.776;2022-12-07T04:56:49;2.00;;;1.40;;
10653;SDS011;5375;51.250;6.776;2022-12-07T04:59:15;2.60;;;1.30;;
10653;SDS011;5375;51.250;6.776;2022-12-07T05:01:42;3.03;;;1.80;;
10653;SDS011;5375;51.250;6.776;2022-12-07T05:04:09;2.87;;;1.70;;
10653;SDS011;5375;51.250;6.776;2022-12-07T05:06:35;2.33;;;1.40;;
10653;SDS011;5375;51.250;6.776;2022-12-07T05:09:01;2.83;;;1.47;;
10653;SDS011;5375;51.250;6.776;2022-12-07T05:11:27;13.83;;;1.67;;
10653;SDS011;5375;51.250;6.776;2022-12-07T05:16:36;2.93;;;1.30;;
10653;SDS011;5375;51.250;6.776;2022-12-07T05:19:02;2.80;;;1.43;;
10653;SDS011;5375;51.250;6.776;2022-12-07T05:21:28;1.30;;;1.10;;
10653;SDS011;5375;51.250;6.776;2022-12-07T05:23:54;2.63;;;1.40;;
10653;SDS011;5375;51.250;6.776;2022-12-07T05:26:19;5.80;;;1.30;;
10653;SDS011;5375;51.250;6.776;2022-12-07T05:28:49;1.90;;;1.33;;
10653;SDS011;5375;51.250;6.776;2022-12-07T05:31:15;3.13;;;1.40;;
10653;SDS011;5375;51.250;6.776;2022-12-07T05:33:41;2.57;;;1.30;;
10653;SDS011;5375;51.250;6.776;2022-12-07T05:36:06;1.97;;;1.30;;
10653;SDS011;5375;51.250;6.776;2022-12-07T05:38:32;3.10;;;1.20;;
10653;SDS011;5375;51.250;6.776;2022-12-07T05:41:02;3.30;;;1.30;;
10653;SDS011;5375;51.250;6.776;2022-12-07T05:43:28;1.50;;;0.93;;
10653;SDS011;5375;51.250;6.776;2022-12-07T05:45:54;2.00;;;1.27;;
10653;SDS011;5375;51.250;6.776;2022-12-07T05:48:20;3.07;;;1.27;;
10653;SDS011;5375;51.250;6.776;2022-12-07T05:50:49;3.47;;;1.30;;
10653;SDS011;5375;51.250;6.776;2022-12-07T05:53:15;3.60;;;1.40;;
10653;SDS011;5375;51.250;6.776;2022-12-07T05:55:41;1.60;;;1.17;;
10653;SDS011;5375;51.250;6.776;2022-12-07T05:58:07;2.67;;;1.70;;
10653;SDS011;5375;51.250;6.776;2022-12-07T06:00:51;1.80;;;1.10;;
10653;SDS011;5375;51.250;6.776;2022-12-07T06:03:19;3.43;;;1.30;;
10653;SDS011;5375;51.250;6.776;2022-12-07T06:05:45;4.27;;;1.30;;
10653;SDS011;5375;51.250;6.776;2022-12-07T06:08:11;3.90;;;1.30;;
10653;SDS011;5375;51.250;6.776;2022-12-07T06:10:36;2.00;;;1.20;;
10653;SDS011;5375;51.250;6.776;2022-12-07T06:13:02;1.53;;;1.20;;
10653;SDS011;5375;51.250;6.776;2022-12-07T06:15:31;5.00;;;1.40;;
10653;SDS011;5375;51.250;6.776;2022-12-07T06:18:13;2.07;;;1.17;;
10653;SDS011;5375;51.250;6.776;2022-12-07T06:20:38;5.13;;;1.20;;
10653;SDS011;5375;51.250;6.776;2022-12-07T06:23:04;2.47;;;1.27;;
10653;SDS011;5375;51.250;6.776;2022-12-07T06:25:29;1.83;;;1.27;;
10653;SDS011;5375;51.250;6.776;2022-12-07T06:27:55;2.83;;;1.47;;
10653;SDS011;5375;51.250;6.776;2022-12-07T06:30:21;1.50;;;1.10;;
10653;SDS011;5375;51.250;6.776;2022-12-07T06:32:46;3.87;;;1.50;;
10653;SDS011;5375;51.250;6.776;2022-12-07T06:35:12;1.97;;;1.20;;
10653;SDS011;5375;51.250;6.776;2022-12-07T06:37:37;1.80;;;1.30;;
10653;SDS011;5375;51.250;6.776;2022-12-07T06:40:03;1.73;;;1.10;;
10653;SDS011;5375;51.250;6.776;2022-12-07T06:42:30;1.37;;;1.03;;
10653;SDS011;5375;51.250;6.776;2022-12-07T06:44:55;3.97;;;1.23;;
10653;SDS011;5375;51.250;6.776;2022-12-07T06:47:21;2.60;;;1.03;;
10653;SDS011;5375;51.250;6.776;2022-12-07T06:49:46;5.33;;;1.23;;
10653;SDS011;5375;51.250;6.776;2022-12-07T06:52:12;3.30;;;1.03;;
10653;SDS011;5375;51.250;6.776;2022-12-07T06:54:37;3.17;;;1.00;;
10653;SDS011;5375;51.250;6.776;2022-12-07T06:57:03;2.07;;;1.30;;
10653;SDS011;5375;51.250;6.776;2022-12-07T06:59:29;4.43;;;1.10;;
10653;SDS011;5375;51.250;6.776;2022-12-07T07:01:54;1.83;;;1.20;;
10653;SDS011;5375;51.250;6.776;2022-12-07T07:04:20;1.97;;;1.20;;
10653;SDS011;5375;51.250;6.776;2022-12-07T07:06:45;1.93;;;1.00;;
10653;SDS011;5375;51.250;6.776;2022-12-07T07:09:12;1.83;;;1.00;;
10653;SDS011;5375;51.250;6.776;2022-12-07T07:11:37;2.17;;;1.00;;
10653;SDS011;5375;51.250;6.776;2022-12-07T07:14:03;3.20;;;1.20;;
10653;SDS011;5375;51.250;6.776;2022-12-07T07:16:29;2.27;;;1.20;;
10653;SDS011;5375;51.250;6.776;2022-12-07T07:18:56;1.60;;;0.90;;
10653;SDS011;5375;51.250;6.776;2022-12-07T07:21:22;2.73;;;1.23;;
10653;SDS011;5375;51.250;6.776;2022-12-07T07:23:49;3.73;;;1.03;;
10653;SDS011;5375;51.250;6.776;2022-12-07T07:26:14;1.63;;;1.10;;
10653;SDS011;5375;51.250;6.776;2022-12-07T07:28:40;1.80;;;1.10;;
10653;SDS011;5375;51.250;6.776;2022-12-07T07:31:06;1.87;;;1.10;;
10653;SDS011;5375;51.250;6.776;2022-12-07T07:33:31;2.10;;;1.10;;
10653;SDS011;5375;51.250;6.776;2022-12-07T07:35:57;2.13;;;1.10;;
10653;SDS011;5375;51.250;6.776;2022-12-07T07:38:23;2.13;;;1.13;;
10653;SDS011;5375;51.250;6.776;2022-12-07T07:40:48;1.73;;;0.80;;
10653;SDS011;5375;51.250;6.776;2022-12-07T07:43:14;1.50;;;1.10;;
10653;SDS011;5375;51.250;6.776;2022-12-07T07:45:40;1.37;;;1.00;;
10653;SDS011;5375;51.250;6.776;2022-12-07T07:48:05;2.57;;;1.00;;
10653;SDS011;5375;51.250;6.776;2022-12-07T07:50:31;1.87;;;1.13;;
10653;SDS011;5375;51.250;6.776;2022-12-07T07:52:57;1.43;;;1.03;;
10653;SDS011;5375;51.250;6.776;2022-12-07T07:55:23;2.03;;;0.87;;
10653;SDS011;5375;51.250;6.776;2022-12-07T07:57:48;1.50;;;1.17;;
10653;SDS011;5375;51.250;6.776;2022-12-07T08:00:14;1.57;;;1.10;;
10653;SDS011;5375;51.250;6.776;2022-12-07T08:02:40;3.03;;;1.03;;
10653;SDS011;5375;51.250;6.776;2022-12-07T08:05:08;1.60;;;1.00;;
10653;SDS011;5375;51.250;6.776;2022-12-07T08:07:34;2.03;;;0.90;;
10653;SDS011;5375;51.250;6.776;2022-12-07T08:10:00;1.90;;;1.10;;
10653;SDS011;5375;51.250;6.776;2022-12-07T08:12:25;3.43;;;1.20;;
10653;SDS011;5375;51.250;6.776;2022-12-07T08:14:51;1.93;;;0.90;;
10653;SDS011;5375;51.250;6.776;2022-12-07T08:17:16;2.83;;;1.00;;
10653;SDS011;5375;51.250;6.776;2022-12-07T08:19:42;4.87;;;1.13;;
10653;SDS011;5375;51.250;6.776;2022-12-07T08:22:08;2.20;;;1.03;;
10653;SDS011;5375;51.250;6.776;2022-12-07T08:24:34;2.00;;;1.20;;
10653;SDS011;5375;51.250;6.776;2022-12-07T08:27:00;2.20;;;1.10;;
10653;SDS011;5375;51.250;6.776;2022-12-07T08:29:25;2.10;;;1.07;;
10653;SDS011;5375;51.250;6.776;2022-12-07T08:31:51;4.73;;;1.10;;
10653;SDS011;5375;51.250;6.776;2022-12-07T08:34:17;2.00;;;0.90;;
10653;SDS011;5375;51.250;6.776;2022-12-07T08:36:43;2.67;;;1.37;;
10653;SDS011;5375;51.250;6.776;2022-12-07T08:39:08;3.50;;;0.90;;
10653;SDS011;5375;51.250;6.776;2022-12-07T08:41:34;2.27;;;1.07;;
10653;SDS011;5375;51.250;6.776;2022-12-07T08:44:00;3.27;;;1.00;;
10653;SDS011;5375;51.250;6.776;2022-12-07T08:46:36;1.60;;;1.10;;
10653;SDS011;5375;51.250;6.776;2022-12-07T08:49:08;3.83;;;1.20;;
10653;SDS011;5375;51.250;6.776;2022-12-07T08:51:35;2.00;;;1.20;;
10653;SDS011;5375;51.250;6.776;2022-12-07T08:54:02;2.40;;;1.10;;
10653;SDS011;5375;51.250;6.776;2022-12-07T08:56:29;1.83;;;1.10;;
10653;SDS011;5375;51.250;6.776;2022-12-07T08:58:55;6.80;;;1.20;;
10653;SDS011;5375;51.250;6.776;2022-12-07T09:01:21;1.73;;;1.20;;
10653;SDS011;5375;51.250;6.776;2022-12-07T09:03:48;2.57;;;1.17;;
10653;SDS011;5375;51.250;6.776;2022-12-07T09:06:14;2.17;;;1.00;;
10653;SDS011;5375;51.250;6.776;2022-12-07T09:08:41;2.50;;;1.00;;
10653;SDS011;5375;51.250;6.776;2022-12-07T09:11:08;2.03;;;1.03;;
10653;SDS011;5375;51.250;6.776;2022-12-07T09:13:34;1.90;;;0.80;;
10653;SDS011;5375;51.250;6.776;2022-12-07T09:16:00;2.20;;;1.10;;
10653;SDS011;5375;51.250;6.776;2022-12-07T09:18:26;3.60;;;1.60;;
10653;SDS011;5375;51.250;6.776;2022-12-07T09:20:52;2.37;;;1.00;;
10653;SDS011;5375;51.250;6.776;2022-12-07T09:23:18;1.93;;;1.00;;
10653;SDS011;5375;51.250;6.776;2022-12-07T09:25:44;3.03;;;1.10;;
10653;SDS011;5375;51.250;6.776;2022-12-07T09:28:10;3.13;;;1.07;;
10653;SDS011;5375;51.250;6.776;2022-12-07T09:30:36;2.03;;;1.10;;
10653;SDS011;5375;51.250;6.776;2022-12-07T09:33:02;1.67;;;0.83;;
10653;SDS011;5375;51.250;6.776;2022-12-07T09:35:28;2.23;;;1.10;;
10653;SDS011;5375;51.250;6.776;2022-12-07T09:37:54;2.73;;;1.20;;
10653;SDS011;5375;51.250;6.776;2022-12-07T09:40:20;2.67;;;1.07;;
10653;SDS011;5375;51.250;6.776;2022-12-07T09:42:48;4.17;;;1.10;;
10653;SDS011;5375;51.250;6.776;2022-12-07T09:45:17;1.83;;;0.90;;
10653;SDS011;5375;51.250;6.776;2022-12-07T09:47:44;2.80;;;1.00;;
10653;SDS011;5375;51.250;6.776;2022-12-07T09:50:19;2.27;;;1.00;;
10653;SDS011;5375;51.250;6.776;2022-12-07T09:52:46;2.77;;;1.20;;
10653;SDS011;5375;51.250;6.776;2022-12-07T09:55:14;1.77;;;1.00;;
10653;SDS011;5375;51.250;6.776;2022-12-07T09:57:40;1.90;;;1.07;;
10653;SDS011;5375;51.250;6.776;2022-12-07T10:00:25;1.87;;;0.90;;
10653;SDS011;5375;51.250;6.776;2022-12-07T10:02:57;2.97;;;1.07;;
10653;SDS011;5375;51.250;6.776;2022-12-07T10:05:27;2.63;;;1.30;;
10653;SDS011;5375;51.250;6.776;2022-12-07T10:07:54;1.53;;;1.13;;
10653;SDS011;5375;51.250;6.776;2022-12-07T10:10:29;1.03;;;0.77;;
10653;SDS011;5375;51.250;6.776;2022-12-07T10:15:22;2.70;;;1.07;;
10653;SDS011;5375;51.250;6.776;2022-12-07T10:17:51;1.67;;;0.80;;
10653;SDS011;5375;51.250;6.776;2022-12-07T10:20:22;3.33;;;1.17;;
10653;SDS011;5375;51.250;6.776;2022-12-07T10:25:21;1.33;;;1.00;;
10653;SDS011;5375;51.250;6.776;2022-12-07T10:27:57;1.80;;;0.90;;
10653;SDS011;5375;51.250;6.776;2022-12-07T10:30:23;3.30;;;1.30;;
10653;SDS011;5375;51.250;6.776;2022-12-07T10:32:49;1.77;;;0.90;;
10653;SDS011;5375;51.250;6.776;2022-12-07T10:37:45;1.97;;;0.90;;
10653;SDS011;5375;51.250;6.776;2022-12-07T10:40:25;3.33;;;1.00;;
10653;SDS011;5375;51.250;6.776;2022-12-07T10:43:02;1.57;;;1.00;;
10653;SDS011;5375;51.250;6.776;2022-12-07T10:45:28;1.90;;;1.00;;
10653;SDS011;5375;51.250;6.776;2022-12-07T10:51:12;1.40;;;0.93;;
10653;SDS011;5375;51.250;6.776;2022-12-07T11:03:42;2.23;;;1.20;;
10653;SDS011;5375;51.250;6.776;2022-12-07T11:06:57;1.27;;;0.73;;
10653;SDS011;5375;51.250;6.776;2022-12-07T11:13:56;1.67;;;0.83;;
10653;SDS011;5375;51.250;6.776;2022-12-07T11:19:05;1.83;;;0.97;;
10653;SDS011;5375;51.250;6.776;2022-12-07T11:24:20;2.10;;;1.00;;
10653;SDS011;5375;51.250;6.776;2022-12-07T11:27:10;3.03;;;1.00;;
10653;SDS011;5375;51.250;6.776;2022-12-07T11:29:51;1.47;;;1.00;;
10653;SDS011;5375;51.250;6.776;2022-12-07T11:37:45;2.83;;;0.93;;
10653;SDS011;5375;51.250;6.776;2022-12-07T11:42:46;2.77;;;1.20;;
10653;SDS011;5375;51.250;6.776;2022-12-07T11:45:15;2.33;;;0.97;;
10653;SDS011;5375;51.250;6.776;2022-12-07T11:47:46;2.87;;;1.00;;
10653;SDS011;5375;51.250;6.776;2022-12-07T11:50:33;3.07;;;1.00;;
10653;SDS011;5375;51.250;6.776;2022-12-07T11:55:48;1.67;;;1.00;;
10653;SDS011;5375;51.250;6.776;2022-12-07T12:00:41;1.97;;;0.93;;
10653;SDS011;5375;51.250;6.776;2022-12-07T12:03:15;1.33;;;0.80;;
10653;SDS011;5375;51.250;6.776;2022-12-07T12:05:42;2.97;;;1.17;;
10653;SDS011;5375;51.250;6.776;2022-12-07T12:10:45;2.00;;;0.90;;
10653;SDS011;5375;51.250;6.776;2022-12-07T12:13:16;1.83;;;1.00;;
10653;SDS011;5375;51.250;6.776;2022-12-07T12:16:08;5.70;;;1.30;;
10653;SDS011;5375;51.250;6.776;2022-12-07T12:18:56;2.53;;;1.00;;
10653;SDS011;5375;51.250;6.776;2022-12-07T12:21:27;1.73;;;0.80;;
10653;SDS011;5375;51.250;6.776;2022-12-07T12:26:24;4.90;;;1.10;;
10653;SDS011;5375;51.250;6.776;2022-12-07T12:29:15;1.53;;;0.80;;
10653;SDS011;5375;51.250;6.776;2022-12-07T12:31:46;3.00;;;0.90;;
10653;SDS011;5375;51.250;6.776;2022-12-07T12:34:33;1.83;;;1.00;;
10653;SDS011;5375;51.250;6.776;2022-12-07T12:36:59;2.40;;;0.90;;
10653;SDS011;5375;51.250;6.776;2022-12-07T12:39:25;1.53;;;0.80;;
10653;SDS011;5375;51.250;6.776;2022-12-07T12:41:52;1.47;;;0.90;;
10653;SDS011;5375;51.250;6.776;2022-12-07T12:51:41;1.60;;;0.83;;
10653;SDS011;5375;51.250;6.776;2022-12-07T12:54:12;1.50;;;0.80;;
10653;SDS011;5375;51.250;6.776;2022-12-07T13:01:50;1.53;;;0.87;;
10653;SDS011;5375;51.250;6.776;2022-12-07T13:04:40;1.50;;;0.90;;
10653;SDS011;5375;51.250;6.776;2022-12-07T13:07:03;2.37;;;1.00;;
10653;SDS011;5375;51.250;6.776;2022-12-07T13:09:31;1.63;;;0.90;;
10653;SDS011;5375;51.250;6.776;2022-12-07T13:12:01;1.70;;;0.80;;
10653;SDS011;5375;51.250;6.776;2022-12-07T13:17:56;2.27;;;0.87;;
10653;SDS011;5375;51.250;6.776;2022-12-07T13:19:55;1.33;;;0.80;;
10653;SDS011;5375;51.250;6.776;2022-12-07T13:24:57;2.30;;;1.07;;
10653;SDS011;5375;51.250;6.776;2022-12-07T13:27:26;2.97;;;1.23;;
10653;SDS011;5375;51.250;6.776;2022-12-07T13:29:53;2.43;;;1.00;;
10653;SDS011;5375;51.250;6.776;2022-12-07T13:32:26;3.43;;;0.80;;
10653;SDS011;5375;51.250;6.776;2022-12-07T13:34:52;1.33;;;0.70;;
10653;SDS011;5375;51.250;6.776;2022-12-07T13:37:21;1.17;;;0.70;;
10653;SDS011;5375;51.250;6.776;2022-12-07T13:39:59;1.43;;;0.80;;
10653;SDS011;5375;51.250;6.776;2022-12-07T13:42:26;1.10;;;0.80;;
10653;SDS011;5375;51.250;6.776;2022-12-07T13:44:52;1.63;;;0.80;;
10653;SDS011;5375;51.250;6.776;2022-12-07T13:47:30;1.70;;;0.90;;
10653;SDS011;5375;51.250;6.776;2022-12-07T13:49:57;1.40;;;0.87;;
10653;SDS011;5375;51.250;6.776;2022-12-07T13:52:24;2.00;;;0.87;;
10653;SDS011;5375;51.250;6.776;2022-12-07T13:54:58;1.33;;;0.90;;
10653;SDS011;5375;51.250;6.776;2022-12-07T13:57:25;4.33;;;1.00;;
10653;SDS011;5375;51.250;6.776;2022-12-07T13:59:51;2.00;;;0.90;;
10653;SDS011;5375;51.250;6.776;2022-12-07T14:02:25;2.57;;;0.80;;
10653;SDS011;5375;51.250;6.776;2022-12-07T14:04:52;2.20;;;0.80;;
10653;SDS011;5375;51.250;6.776;2022-12-07T14:07:24;2.67;;;0.90;;
10653;SDS011;5375;51.250;6.776;2022-12-07T14:09:58;3.50;;;1.10;;
10653;SDS011;5375;51.250;6.776;2022-12-07T14:12:24;1.93;;;0.77;;
10653;SDS011;5375;51.250;6.776;2022-12-07T14:14:51;1.00;;;0.67;;
10653;SDS011;5375;51.250;6.776;2022-12-07T14:17:18;1.90;;;0.70;;
10653;SDS011;5375;51.250;6.776;2022-12-07T14:19:49;3.03;;;0.70;;
10653;SDS011;5375;51.250;6.776;2022-12-07T14:24:46;1.43;;;1.00;;
10653;SDS011;5375;51.250;6.776;2022-12-07T14:27:19;1.30;;;0.80;;
10653;SDS011;5375;51.250;6.776;2022-12-07T14:29:46;1.73;;;0.83;;
10653;SDS011;5375;51.250;6.776;2022-12-07T14:32:25;2.10;;;0.90;;
10653;SDS011;5375;51.250;6.776;2022-12-07T14:34:59;2.90;;;0.90;;
10653;SDS011;5375;51.250;6.776;2022-12-07T14:37:25;1.67;;;0.80;;
10653;SDS011;5375;51.250;6.776;2022-12-07T14:39:52;1.10;;;0.80;;
10653;SDS011;5375;51.250;6.776;2022-12-07T14:42:18;2.27;;;0.70;;
10653;SDS011;5375;51.250;6.776;2022-12-07T14:44:44;1.90;;;0.60;;
10653;SDS011;5375;51.250;6.776;2022-12-07T14:47:11;2.67;;;0.80;;
10653;SDS011;5375;51.250;6.776;2022-12-07T14:49:37;2.80;;;0.97;;
10653;SDS011;5375;51.250;6.776;2022-12-07T14:52:03;2.50;;;0.90;;
10653;SDS011;5375;51.250;6.776;2022-12-07T14:54:30;4.27;;;0.80;;
10653;SDS011;5375;51.250;6.776;2022-12-07T14:56:57;1.90;;;0.97;;
10653;SDS011;5375;51.250;6.776;2022-12-07T14:59:23;1.17;;;0.80;;
10653;SDS011;5375;51.250;6.776;2022-12-07T15:01:49;2.73;;;1.00;;
10653;SDS011;5375;51.250;6.776;2022-12-07T15:04:15;2.87;;;1.20;;
10653;SDS011;5375;51.250;6.776;2022-12-07T15:06:41;1.60;;;0.70;;
10653;SDS011;5375;51.250;6.776;2022-12-07T15:09:09;6.70;;;0.90;;
10653;SDS011;5375;51.250;6.776;2022-12-07T15:11:36;0.77;;;0.53;;
10653;SDS011;5375;51.250;6.776;2022-12-07T15:14:02;2.13;;;0.80;;
10653;SDS011;5375;51.250;6.776;2022-12-07T15:16:34;1.17;;;0.70;;
10653;SDS011;5375;51.250;6.776;2022-12-07T15:19:01;3.40;;;0.70;;
10653;SDS011;5375;51.250;6.776;2022-12-07T15:21:27;2.87;;;1.00;;
10653;SDS011;5375;51.250;6.776;2022-12-07T15:23:53;3.17;;;1.30;;
10653;SDS011;5375;51.250;6.776;2022-12-07T15:26:19;4.10;;;0.90;;
10653;SDS011;5375;51.250;6.776;2022-12-07T15:28:45;8.03;;;0.90;;
10653;SDS011;5375;51.250;6.776;2022-12-07T15:31:14;1.67;;;0.90;;
10653;SDS011;5375;51.250;6.776;2022-12-07T15:33:41;1.37;;;0.63;;
10653;SDS011;5375;51.250;6.776;2022-12-07T15:36:07;1.80;;;0.90;;
10653;SDS011;5375;51.250;6.776;2022-12-07T15:38:34;1.57;;;0.93;;
10653;SDS011;5375;51.250;6.776;2022-12-07T15:41:00;1.97;;;0.80;;
10653;SDS011;5375;51.250;6.776;2022-12-07T15:43:26;2.00;;;0.80;;
10653;SDS011;5375;51.250;6.776;2022-12-07T15:46:11;2.80;;;0.90;;
10653;SDS011;5375;51.250;6.776;2022-12-07T15:48:37;1.20;;;0.63;;
10653;SDS011;5375;51.250;6.776;2022-12-07T15:51:04;4.27;;;0.70;;
10653;SDS011;5375;51.250;6.776;2022-12-07T15:53:31;1.63;;;0.70;;
10653;SDS011;5375;51.250;6.776;2022-12-07T15:55:57;2.30;;;0.87;;
10653;SDS011;5375;51.250;6.776;2022-12-07T15:58:23;1.70;;;0.97;;
10653;SDS011;5375;51.250;6.776;2022-12-07T16:00:49;1.07;;;0.70;;
10653;SDS011;5375;51.250;6.776;2022-12-07T16:03:15;1.77;;;0.83;;
10653;SDS011;5375;51.250;6.776;2022-12-07T16:05:41;1.97;;;0.93;;
10653;SDS011;5375;51.250;6.776;2022-12-07T16:08:07;1.20;;;0.87;;
10653;SDS011;5375;51.250;6.776;2022-12-07T16:10:33;2.67;;;0.83;;
10653;SDS011;5375;51.250;6.776;2022-12-07T16:13:00;1.57;;;0.90;;
10653;SDS011;5375;51.250;6.776;2022-12-07T16:15:26;3.00;;;0.83;;
10653;SDS011;5375;51.250;6.776;2022-12-07T16:17:52;3.27;;;1.00;;
10653;SDS011;5375;51.250;6.776;2022-12-07T16:20:18;2.37;;;0.80;;
10653;SDS011;5375;51.250;6.776;2022-12-07T16:22:44;2.13;;;0.87;;
10653;SDS011;5375;51.250;6.776;2022-12-07T16:25:10;1.83;;;0.80;;
10653;SDS011;5375;51.250;6.776;2022-12-07T16:27:36;1.47;;;0.87;;
10653;SDS011;5375;51.250;6.776;2022-12-07T16:30:02;3.17;;;0.97;;
10653;SDS011;5375;51.250;6.776;2022-12-07T16:32:28;1.17;;;0.70;;
10653;SDS011;5375;51.250;6.776;2022-12-07T16:34:54;2.60;;;0.93;;
10653;SDS011;5375;51.250;6.776;2022-12-07T16:37:20;1.20;;;0.87;;
10653;SDS011;5375;51.250;6.776;2022-12-07T16:39:46;3.50;;;0.80;;
10653;SDS011;5375;51.250;6.776;2022-12-07T16:42:12;3.03;;;1.00;;